Time;durP1;ratioP1;P1;durP2;ratioP2;P2;SDS_P1;SDS_P2;PMS_P1;PMS_P2;Temp;Humidity;BMP_temperature;BMP_pressure;BME280_temperature;BME280_humidity;BME280_pressure;Samples;Min_cycle;Max_cycle;Signal;HPM_P1;HPM_P2
2023/11/25 00:02:05;;;;;;;1.90;1.30;;;;;;;0.30;85.38;98769.27;106146;1291;73553;-56
2023/11/25 00:04:51;;;;;;;3.50;1.40;;;;;;;0.32;86.34;98777.73;106187;1291;68324;-58
2023/11/25 00:07:37;;;;;;;1.70;1.40;;;;;;;0.35;85.46;98777.05;106132;1290;72315;-58
2023/11/25 00:10:23;;;;;;;1.90;1.70;;;;;;;0.37;85.94;98778.73;105408;1290;60487;-57
2023/11/25 00:13:09;;;;;;;;;;;;;;;0.36;86.13;98781.11;104831;1291;60608;-60
2023/11/25 00:15:55;;;;;;;3.00;1.70;;;;;;;0.32;85.87;98779.77;104793;1290;72353;-59
2023/11/25 00:18:41;;;;;;;;;;;;;;;0.26;86.47;98780.98;104815;1291;67344;-59
2023/11/25 00:21:28;;;;;;;3.90;2.20;;;;;;;0.20;86.19;98783.72;104800;1290;71189;-59
2023/11/25 00:24:14;;;;;;;;;;;;;;;0.11;86.86;98792.73;104825;1294;60121;-60
2023/11/25 00:27:00;;;;;;;4.40;2.30;;;;;;;0.02;86.57;98789.37;104806;1290;61446;-60
2023/11/25 00:29:47;;;;;;;;;;;;;;;-0.05;86.37;98799.08;104803;1289;72348;-58
2023/11/25 00:32:40;;;;;;;5.00;2.70;;;;;;;-0.14;87.14;98805.86;104830;1291;67790;-59
2023/11/25 00:35:27;;;;;;;3.10;2.30;;;;;;;-0.23;86.80;98810.62;104796;1294;70632;-59
2023/11/25 00:38:13;;;;;;;3.30;2.10;;;;;;;-0.29;86.01;98821.80;104788;1291;61013;-60
2023/11/25 00:41:00;;;;;;;4.80;3.00;;;;;;;-0.32;86.34;98829.09;104809;1290;59238;-59
2023/11/25 00:43:46;;;;;;;;;;;;;;;-0.35;86.12;98835.52;104792;1291;73495;-60
2023/11/25 00:46:32;;;;;;;5.20;3.20;;;;;;;-0.35;87.79;98833.15;104758;1291;68033;-59
2023/11/25 00:49:19;;;;;;;4.40;3.30;;;;;;;-0.36;87.52;98834.17;104826;1291;74727;-59
2023/11/25 00:52:06;;;;;;;9.10;4.10;;;;;;;-0.37;87.21;98836.54;104789;1291;60531;-58
2023/11/25 00:54:53;;;;;;;7.80;5.10;;;;;;;-0.40;88.57;98834.51;104763;1291;60363;-58
2023/11/25 00:57:39;;;;;;;7.30;4.50;;;;;;;-0.44;88.21;98840.42;102363;1291;5004034;-60
2023/11/25 01:00:26;;;;;;;5.80;4.20;;;;;;;-0.46;89.38;98842.13;106141;1290;67272;-60
2023/11/25 01:03:12;;;;;;;6.50;4.10;;;;;;;-0.50;88.05;98845.85;106104;1294;71155;-60
2023/11/25 01:05:59;;;;;;;8.30;4.90;;;;;;;-0.55;88.23;98847.41;106135;1291;58472;-60
2023/11/25 01:08:45;;;;;;;8.20;4.90;;;;;;;-0.58;87.43;98847.40;106152;1290;60308;-60
2023/11/25 01:11:31;;;;;;;;;;;;;;;-0.62;88.43;98854.01;106151;1291;73354;-59
2023/11/25 01:14:17;;;;;;;10.10;5.20;;;;;;;-0.64;87.92;98855.87;105503;1290;66581;-59
2023/11/25 01:17:04;;;;;;;11.70;6.10;;;;;;;-0.66;88.31;98864.83;104829;1291;75126;-59
2023/11/25 01:19:50;;;;;;;;;;;;;;;-0.70;87.29;98868.89;104789;1290;63469;-59
2023/11/25 01:22:36;;;;;;;8.10;4.90;;;;;;;-0.74;87.65;98872.09;104767;1292;60859;-59
2023/11/25 01:25:22;;;;;;;9.90;6.00;;;;;;;-0.77;87.15;98877.50;104782;1292;72915;-59
2023/11/25 01:28:10;;;;;;;;;;;;;;;-0.78;87.81;98883.42;104832;1291;71373;-59
2023/11/25 01:30:56;;;;;;;8.60;5.40;;;;;;;-0.82;88.37;98882.40;104698;1291;71747;-59
2023/11/25 01:33:43;;;;;;;10.00;5.60;;;;;;;-0.84;88.17;98886.63;104785;1291;60371;-58
2023/11/25 01:36:29;;;;;;;13.70;6.70;;;;;;;-0.87;88.84;98885.27;105151;1291;60403;-59
2023/11/25 01:39:15;;;;;;;;;;;;;;;-0.90;87.29;98889.83;104751;1291;73352;-59
2023/11/25 01:42:02;;;;;;;12.00;7.20;;;;;;;-0.92;88.42;98896.08;104731;1291;67231;-59
2023/11/25 01:44:48;;;;;;;12.40;6.90;;;;;;;-0.98;86.98;98900.46;104784;1291;71177;-59
2023/11/25 01:47:35;;;;;;;;;;;;;;;-1.02;86.76;98899.95;104839;1290;60630;-59
2023/11/25 01:50:21;;;;;;;13.30;6.80;;;;;;;-1.00;87.95;98906.88;104809;1291;60374;-59
2023/11/25 01:53:08;;;;;;;13.00;6.90;;;;;;;-1.01;88.76;98902.48;104778;1291;72392;-60
2023/11/25 01:55:55;;;;;;;14.80;6.20;;;;;;;-1.03;88.16;98905.69;104763;1291;67089;-59
2023/11/25 01:58:42;;;;;;;10.40;6.40;;;;;;;-1.04;88.46;98911.45;104669;1294;74340;-58
2023/11/25 02:01:28;;;;;;;13.80;7.40;;;;;;;-1.05;88.22;98917.20;104719;1291;60319;-59
2023/11/25 02:04:15;;;;;;;9.40;5.80;;;;;;;-1.06;89.06;98925.48;104780;1291;60381;-60
2023/11/25 02:07:02;;;;;;;12.10;6.30;;;;;;;-1.04;88.07;98927.34;104809;1290;72469;-58
2023/11/25 02:09:49;;;;;;;14.50;8.00;;;;;;;-0.99;88.17;98929.20;104732;1291;67925;-58
2023/11/25 02:12:38;;;;;;;12.10;7.40;;;;;;;-0.96;87.95;98932.92;106074;1292;71236;-59
2023/11/25 02:15:24;;;;;;;9.60;6.10;;;;;;;-0.93;89.05;98935.81;105157;1291;60363;-59
2023/11/25 02:18:10;;;;;;;12.70;6.00;;;;;;;-0.90;89.06;98938.88;104674;1290;60519;-59
2023/11/25 02:20:57;;;;;;;11.10;6.20;;;;;;;-0.87;88.41;98943.11;104783;1291;74049;-59
2023/11/25 02:23:43;;;;;;;;;;;;;;;-0.81;88.56;98947.53;104798;1290;72171;-60
2023/11/25 02:26:29;;;;;;;7.90;5.60;;;;;;;-0.76;89.96;98944.50;104708;1290;73818;-59
2023/11/25 02:29:15;;;;;;;13.10;6.70;;;;;;;-0.72;88.47;98945.35;104724;1289;61156;-59
2023/11/25 02:32:03;;;;;;;;;;;;;;;-0.69;88.80;98945.19;104769;1290;60432;-59
2023/11/25 02:34:50;;;;;;;6.90;5.00;;;;;;;-0.66;88.12;98947.73;104709;1291;72645;-59
2023/11/25 02:37:37;;;;;;;11.40;5.70;;;;;;;-0.64;88.29;98947.06;104758;1291;67288;-59
2023/11/25 02:40:24;;;;;;;6.00;4.80;;;;;;;-0.62;88.15;98951.98;104766;1291;74074;-58
2023/11/25 02:43:11;;;;;;;8.50;5.10;;;;;;;-0.58;89.52;98954.86;104673;1291;60371;-58
2023/11/25 02:45:57;;;;;;;7.90;5.50;;;;;;;-0.56;88.24;98958.25;106068;1291;58888;-60
2023/11/25 02:48:44;;;;;;;8.30;4.70;;;;;;;-0.51;89.30;98959.41;105135;1291;72599;-59
2023/11/25 02:51:30;;;;;;;10.10;5.50;;;;;;;-0.47;89.30;98962.46;104698;1291;67991;-58
2023/11/25 02:54:20;;;;;;;;;;;;;;;-0.44;89.19;98969.59;104745;1291;71192;-59
2023/11/25 02:57:07;;;;;;;7.30;4.20;;;;;;;-0.40;88.44;98970.77;104745;1291;60442;-59
2023/11/25 02:59:55;;;;;;;8.30;5.00;;;;;;;-0.38;87.48;98980.09;104802;1294;60353;-59
2023/11/25 03:02:41;;;;;;;5.70;4.30;;;;;;;-0.35;87.61;98982.29;104827;1291;73383;-59
2023/11/25 03:05:27;;;;;;;7.10;4.40;;;;;;;-0.32;88.15;98984.49;104794;1290;70393;-59
2023/11/25 03:08:14;;;;;;;;;;;;;;;-0.29;87.76;98988.23;104791;1290;71182;-59
2023/11/25 03:11:04;;;;;;;7.10;3.80;;;;;;;-0.26;87.82;98994.16;104767;1290;60344;-59
2023/11/25 03:13:51;;;;;;;6.90;4.00;;;;;;;-0.24;87.92;98991.79;104609;1291;59428;-59
2023/11/25 03:16:37;;;;;;;;;;;;;;;-0.23;87.55;99000.42;104664;1291;72533;-59
2023/11/25 03:19:23;;;;;;;6.90;3.80;;;;;;;-0.22;87.78;99001.11;104860;1291;67406;-59
2023/11/25 03:22:09;;;;;;;;;;;;;;;-0.21;87.88;99001.10;104856;1291;71144;-59
2023/11/25 03:24:56;;;;;;;10.70;2.90;;;;;;;-0.20;87.43;98999.41;104766;1291;60780;-59
2023/11/25 03:27:42;;;;;;;5.40;3.50;;;;;;;-0.19;87.84;99002.13;104791;1294;61019;-60
2023/11/25 03:30:28;;;;;;;5.20;3.10;;;;;;;-0.19;88.28;99002.98;104808;1291;72679;-59
2023/11/25 03:33:14;;;;;;;;;;;;;;;-0.18;88.10;99007.55;104832;1290;69984;-57
2023/11/25 03:36:01;;;;;;;3.90;2.70;;;;;;;-0.19;88.05;99006.02;104749;1294;73084;-58
2023/11/25 03:38:47;;;;;;;6.00;2.90;;;;;;;-0.22;88.32;99006.52;104771;1291;60443;-57
2023/11/25 03:41:34;;;;;;;8.70;3.20;;;;;;;-0.25;88.50;99007.70;104804;1291;60424;-59
2023/11/25 03:44:21;;;;;;;3.60;2.50;;;;;;;-0.28;87.82;99004.48;104811;1289;73289;-59
2023/11/25 03:47:10;;;;;;;3.90;2.50;;;;;;;-0.30;87.70;99011.08;104802;1290;67383;-59
2023/11/25 03:49:56;;;;;;;6.80;3.00;;;;;;;-0.31;88.23;99012.61;104791;1290;71257;-59
2023/11/25 03:52:42;;;;;;;;;;;;;;;-0.29;87.75;99023.45;104827;1290;60611;-59
2023/11/25 03:55:28;;;;;;;3.40;2.40;;;;;;;-0.29;87.96;99030.72;104792;1292;60446;-58
2023/11/25 03:58:15;;;;;;;;;;;;;;;-0.28;88.76;99035.64;104835;1290;75201;-60
2023/11/25 04:01:01;;;;;;;4.80;2.40;;;;;;;-0.27;87.90;99034.96;104812;1291;67438;-57
2023/11/25 04:03:47;;;;;;;4.60;2.40;;;;;;;-0.26;88.05;99036.83;104755;1294;71091;-58
2023/11/25 04:06:34;;;;;;;5.40;2.80;;;;;;;-0.25;87.81;99043.42;104787;1290;60498;-59
2023/11/25 04:09:20;;;;;;;;;;;;;;;-0.23;87.70;99046.31;104821;1291;63045;-59
2023/11/25 04:12:07;;;;;;;3.30;2.00;;;;;;;-0.22;87.59;99048.85;104799;1290;73592;-59
2023/11/25 04:14:53;;;;;;;4.10;2.20;;;;;;;-0.21;88.36;99057.83;106019;1290;69414;-60
2023/11/25 04:17:40;;;;;;;;;;;;;;;-0.20;87.63;99061.73;104771;1290;74079;-60
2023/11/25 04:20:29;;;;;;;4.90;2.10;;;;;;;-0.19;88.15;99063.93;104750;1288;60651;-59
2023/11/25 04:23:18;;;;;;;2.90;1.60;;;;;;;-0.19;88.27;99070.03;104808;1290;60362;-59
2023/11/25 04:26:05;;;;;;;5.00;2.30;;;;;;;-0.18;87.78;99068.00;104822;1289;74039;-59
2023/11/25 04:28:52;;;;;;;3.30;1.80;;;;;;;-0.16;88.22;99069.52;104842;1291;67565;-59
2023/11/25 04:31:39;;;;;;;5.10;1.90;;;;;;;-0.15;88.07;99070.20;104763;1294;71408;-59
2023/11/25 04:34:25;;;;;;;4.60;1.90;;;;;;;-0.13;87.48;99071.91;104802;1289;60400;-59
2023/11/25 04:37:11;;;;;;;;;;;;;;;-0.11;87.20;99075.97;104806;1290;60337;-59
2023/11/25 04:39:58;;;;;;;4.30;1.80;;;;;;;-0.10;87.26;99080.55;104777;1290;72375;-58
2023/11/25 04:42:44;;;;;;;3.70;1.60;;;;;;;-0.09;87.08;99079.70;106149;1290;67385;-60
2023/11/25 04:45:30;;;;;;;2.90;1.80;;;;;;;-0.08;87.52;99079.70;106168;1289;71488;-61
2023/11/25 04:48:16;;;;;;;2.70;1.30;;;;;;;-0.07;87.62;99080.05;106159;1289;58251;-60
2023/11/25 04:51:03;;;;;;;2.40;1.60;;;;;;;-0.06;87.71;99087.33;105223;1294;60410;-59
2023/11/25 04:53:49;;;;;;;2.60;1.20;;;;;;;-0.05;87.11;99087.67;104834;1290;72636;-60
2023/11/25 04:56:37;;;;;;;;;;;;;;;-0.05;87.60;99090.73;104816;1291;67301;-59
2023/11/25 04:59:24;;;;;;;2.70;1.40;;;;;;;-0.08;87.59;99089.20;104788;1290;71192;-59
2023/11/25 05:02:10;;;;;;;1.50;1.20;;;;;;;-0.11;87.22;99095.63;104780;1291;60470;-58
2023/11/25 05:04:56;;;;;;;;;;;;;;;-0.14;87.25;99096.96;104839;1290;60397;-58
2023/11/25 05:07:43;;;;;;;2.60;1.00;;;;;;;-0.20;88.18;99104.73;104777;1291;72459;-59
2023/11/25 05:10:29;;;;;;;2.00;1.10;;;;;;;-0.27;88.32;99108.27;104439;1295;320958;-59
2023/11/25 05:13:16;;;;;;;2.00;1.40;;;;;;;-0.31;88.76;99109.95;104788;1289;71276;-59
2023/11/25 05:16:03;;;;;;;1.70;1.10;;;;;;;-0.37;87.97;99121.10;104761;1289;60310;-59
2023/11/25 05:18:49;;;;;;;1.70;1.10;;;;;;;-0.43;87.96;99128.52;105140;1290;60490;-58
2023/11/25 05:21:36;;;;;;;3.20;1.10;;;;;;;-0.47;87.42;99134.77;104735;1290;72684;-59
2023/11/25 05:24:22;;;;;;;;;;;;;;;-0.50;88.05;99143.55;104857;1291;66255;-59
2023/11/25 05:27:08;;;;;;;1.70;0.90;;;;;;;-0.51;89.33;99153.71;104816;1290;71081;-58
2023/11/25 05:29:55;;;;;;;;;;;;;;;-0.51;90.05;99162.01;104773;1290;60428;-56
2023/11/25 05:32:42;;;;;;;2.90;2.00;;;;;;;-0.53;89.25;99166.42;104836;1290;60369;-58
2023/11/25 05:35:29;;;;;;;2.90;0.70;;;;;;;-0.53;88.35;99174.04;104843;1290;72480;-57
2023/11/25 05:38:17;;;;;;;;;;;;;;;-0.52;88.67;99178.27;104846;1290;67687;-59
2023/11/25 05:41:04;;;;;;;1.10;0.60;;;;;;;-0.49;89.06;99178.77;104852;1289;71308;-59
2023/11/25 05:43:50;;;;;;;2.70;1.00;;;;;;;-0.44;88.85;99177.95;104770;1290;60584;-58
2023/11/25 05:46:37;;;;;;;1.70;0.60;;;;;;;-0.39;88.42;99178.65;104741;1290;59553;-59
2023/11/25 05:49:23;;;;;;;1.30;0.50;;;;;;;-0.36;89.14;99181.71;104791;1291;71492;-59
2023/11/25 05:52:09;;;;;;;;;;;;;;;-0.32;88.37;99187.48;104757;1291;71212;-59
2023/11/25 05:54:55;;;;;;;1.60;0.80;;;;;;;-0.29;89.50;99190.04;104744;1289;71561;-60
2023/11/25 05:57:44;;;;;;;;;;;;;;;-0.28;88.86;99194.11;104726;1290;60448;-60
2023/11/25 06:00:30;;;;;;;2.30;0.40;;;;;;;-0.28;88.76;99196.65;104740;1291;60575;-60
2023/11/25 06:03:16;;;;;;;;;;;;;;;-0.29;88.31;99197.66;104811;1291;72261;-59
2023/11/25 06:06:07;;;;;;;0.90;0.40;;;;;;;-0.29;89.83;99197.32;104711;1289;67368;-59
2023/11/25 06:08:53;;;;;;;0.90;0.30;;;;;;;-0.31;88.65;99201.55;104763;1289;71264;-57
2023/11/25 06:11:39;;;;;;;1.20;0.40;;;;;;;-0.32;88.38;99203.58;104694;1290;60439;-58
2023/11/25 06:14:26;;;;;;;2.20;0.70;;;;;;;-0.31;88.37;99201.55;104781;1289;61231;-59
2023/11/25 06:17:12;;;;;;;1.60;0.50;;;;;;;-0.30;88.87;99201.73;104758;1290;72406;-59
2023/11/25 06:19:59;;;;;;;;;;;;;;;-0.28;89.45;99202.92;104735;1289;69083;-60
2023/11/25 06:22:45;;;;;;;2.00;0.70;;;;;;;-0.25;88.96;99208.01;104714;1291;71141;-59
2023/11/25 06:25:31;;;;;;;2.00;0.70;;;;;;;-0.22;88.73;99212.42;97479;1291;10001889;-60
2023/11/25 06:28:20;;;;;;;2.40;0.50;;;;;;;-0.20;89.52;99217.02;106099;1290;72688;-60
2023/11/25 06:31:17;;;;;;;2.90;0.60;;;;;;;-0.17;89.52;99224.30;106159;1290;67337;-60
2023/11/25 06:34:03;;;;;;;2.90;0.70;;;;;;;-0.15;89.22;99227.36;106079;1290;72597;-60
2023/11/25 06:36:49;;;;;;;1.00;0.60;;;;;;;-0.13;88.50;99230.59;106108;1291;58227;-61
2023/11/25 06:39:35;;;;;;;0.90;0.70;;;;;;;-0.10;88.35;99233.99;106136;1289;59390;-61
2023/11/25 06:42:22;;;;;;;0.40;0.40;;;;;;;-0.08;89.85;99236.38;106134;1289;72551;-60
2023/11/25 06:45:08;;;;;;;1.70;0.50;;;;;;;-0.06;88.77;99240.79;106138;1290;68370;-61
2023/11/25 06:47:54;;;;;;;1.30;0.60;;;;;;;-0.03;88.81;99249.78;106102;1291;72040;-60
2023/11/25 06:50:40;;;;;;;1.70;0.60;;;;;;;-0.01;88.87;99250.80;106165;1289;58461;-58
2023/11/25 06:53:27;;;;;;;1.20;0.60;;;;;;;0.02;89.13;99258.07;106140;1289;60006;-58
2023/11/25 06:56:16;;;;;;;3.90;0.50;;;;;;;0.05;88.78;99262.65;106155;1289;73807;-57
2023/11/25 06:59:02;;;;;;;1.50;0.70;;;;;;;0.07;88.51;99266.89;106147;1291;67393;-58
2023/11/25 07:01:48;;;;;;;2.90;0.90;;;;;;;0.10;88.87;99274.54;106152;1289;72137;-58
2023/11/25 07:04:34;;;;;;;1.10;0.50;;;;;;;0.15;88.70;99274.73;106153;1291;58853;-58
2023/11/25 07:07:20;;;;;;;2.70;0.60;;;;;;;0.17;89.48;99274.91;106168;1290;59701;-58
2023/11/25 07:10:13;;;;;;;;;;;;;;;0.22;88.86;99283.58;106153;1290;72202;-58
2023/11/25 07:12:59;;;;;;;1.10;0.60;;;;;;;0.26;88.92;99284.94;106106;1290;68588;-58
2023/11/25 07:15:45;;;;;;;1.50;0.90;;;;;;;0.27;89.10;99291.40;106158;1289;70175;-58
2023/11/25 07:18:32;;;;;;;4.00;0.60;;;;;;;0.31;88.72;99295.80;106139;1289;58319;-57
2023/11/25 07:21:19;;;;;;;0.40;0.40;;;;;;;0.33;88.78;99299.04;106152;1289;58658;-57
2023/11/25 07:24:08;;;;;;;0.80;0.60;;;;;;;0.35;88.72;99298.03;106124;1289;73542;-58
2023/11/25 07:27:01;;;;;;;2.80;0.80;;;;;;;0.36;88.64;99297.36;106145;1291;67407;-57
2023/11/25 07:29:49;;;;;;;3.10;0.90;;;;;;;0.39;88.60;99296.36;92666;1294;5005917;-57
2023/11/25 07:32:35;;;;;;;;;;;;;;;0.42;88.40;99298.57;105981;1290;58217;-56
2023/11/25 07:35:21;;;;;;;1.70;1.00;;;;;;;0.48;88.33;99297.91;106156;1290;58523;-57
2023/11/25 07:38:07;;;;;;;2.80;1.20;;;;;;;0.55;88.43;99295.87;106112;1289;75007;-57
2023/11/25 07:40:53;;;;;;;1.90;0.80;;;;;;;0.62;88.23;99297.25;105176;1290;69380;-59
2023/11/25 07:43:40;;;;;;;1.40;0.70;;;;;;;0.71;88.24;99301.67;104796;1289;71243;-58
2023/11/25 07:46:26;;;;;;;1.50;0.50;;;;;;;0.71;88.21;99307.28;104792;1292;62161;-59
2023/11/25 07:49:12;;;;;;;1.60;0.40;;;;;;;0.74;88.14;99309.48;104780;1291;60475;-59
2023/11/25 07:51:59;;;;;;;;;;;;;;;0.75;88.13;99313.39;104811;1290;72627;-57
2023/11/25 07:54:45;;;;;;;1.30;0.60;;;;;;;0.77;88.10;99316.45;104735;1291;67293;-59
2023/11/25 07:57:32;;;;;;;1.10;0.40;;;;;;;0.79;88.01;99315.45;104770;1294;71470;-60
2023/11/25 08:00:19;;;;;;;1.00;0.50;;;;;;;0.85;88.08;99316.48;105567;1290;60297;-57
2023/11/25 08:03:06;;;;;;;1.70;0.80;;;;;;;0.81;88.01;99317.98;105005;1290;60361;-56
2023/11/25 08:05:52;;;;;;;3.00;2.00;;;;;;;0.82;88.08;99313.92;104644;1290;73397;-58
2023/11/25 08:08:40;;;;;;;1.80;0.60;;;;;;;0.81;88.00;99321.73;104719;1291;67178;-56
2023/11/25 08:11:28;;;;;;;2.50;0.50;;;;;;;0.85;88.01;99323.43;106091;1290;70658;-57
2023/11/25 08:14:14;;;;;;;0.40;0.30;;;;;;;0.84;87.96;99323.26;106093;1291;58578;-57
2023/11/25 08:17:01;;;;;;;0.60;0.50;;;;;;;0.86;87.93;99330.73;106002;1290;60914;-56
2023/11/25 08:19:46;;;;;;;4.20;3.90;;;;;;;0.88;88.08;99334.13;106126;1291;72593;-57
2023/11/25 08:22:32;;;;;;;0.90;0.30;;;;;;;0.88;88.05;99338.88;106156;1290;68508;-57
2023/11/25 08:25:18;;;;;;;2.50;0.50;;;;;;;0.94;88.31;99343.13;106104;1290;72293;-58
2023/11/25 08:28:05;;;;;;;1.10;0.50;;;;;;;1.04;87.99;99341.95;106138;1290;58308;-59
2023/11/25 08:30:52;;;;;;;0.70;0.40;;;;;;;1.17;87.98;99340.09;106168;1289;61269;-58
2023/11/25 08:33:39;;;;;;;;;;;;;;;1.46;88.09;99349.96;105593;1291;72444;-56
2023/11/25 08:36:25;;;;;;;1.00;0.70;;;;;;;1.60;87.47;99351.63;104766;1291;67663;-56
2023/11/25 08:39:13;;;;;;;1.60;0.60;;;;;;;1.57;86.99;99355.72;104761;1290;71308;-56
2023/11/25 08:41:59;;;;;;;2.10;0.80;;;;;;;1.57;86.95;99358.09;104703;1291;63071;-58
2023/11/25 08:44:48;;;;;;;1.70;1.30;;;;;;;1.56;87.19;99366.42;104650;1290;60530;-59
2023/11/25 08:47:35;;;;;;;1.50;0.60;;;;;;;1.54;87.38;99372.89;104726;1291;72358;-59
2023/11/25 08:50:24;;;;;;;0.40;0.40;;;;;;;1.46;87.34;99370.85;104765;1290;67343;-58
2023/11/25 08:53:10;;;;;;;2.40;0.70;;;;;;;1.30;87.35;99371.17;106141;1290;71619;-57
2023/11/25 08:56:09;;;;;;;5.60;0.90;;;;;;;1.22;87.58;99380.48;106083;1290;59181;-58
2023/11/25 08:58:55;;;;;;;5.70;1.30;;;;;;;1.16;87.56;99383.36;106043;1290;59939;-55
2023/11/25 09:01:42;;;;;;;1.30;0.90;;;;;;;1.13;87.77;99389.80;106138;1290;72663;-59
2023/11/25 09:04:32;;;;;;;1.20;0.80;;;;;;;1.14;87.92;99390.66;106109;1291;68439;-58
2023/11/25 09:07:18;;;;;;;1.30;1.00;;;;;;;1.15;87.84;99396.60;106104;1290;71419;-57
2023/11/25 09:10:05;;;;;;;2.30;1.20;;;;;;;1.13;87.95;99399.82;106119;1290;58476;-56
2023/11/25 09:12:52;;;;;;;4.70;1.90;;;;;;;1.15;88.05;99401.86;106111;1290;58799;-57
2023/11/25 09:15:38;;;;;;;6.00;2.90;;;;;;;1.24;88.09;99400.86;106102;1294;71652;-57
2023/11/25 09:18:25;;;;;;;5.20;1.50;;;;;;;1.28;87.79;99402.73;106098;1290;66934;-57
2023/11/25 09:21:13;;;;;;;2.90;1.80;;;;;;;1.28;87.72;99406.48;106131;1290;71748;-57
2023/11/25 09:23:59;;;;;;;2.80;1.50;;;;;;;1.26;87.56;99404.61;106104;1290;58132;-58
2023/11/25 09:26:47;;;;;;;3.30;1.40;;;;;;;1.22;87.63;99405.10;106061;1290;60240;-58
2023/11/25 09:29:36;;;;;;;5.40;1.60;;;;;;;1.25;87.76;99405.28;106087;1290;74087;-58
2023/11/25 09:32:24;;;;;;;4.40;1.30;;;;;;;1.29;87.48;99408.52;106110;1290;69519;-58
2023/11/25 09:35:11;;;;;;;3.70;1.50;;;;;;;1.33;87.62;99411.58;106090;1294;71448;-58
2023/11/25 09:37:57;;;;;;;3.30;1.30;;;;;;;1.36;87.37;99411.58;106121;1291;59201;-58
2023/11/25 09:40:44;;;;;;;2.70;1.60;;;;;;;1.41;87.37;99415.66;106152;1291;60242;-58
2023/11/25 09:43:31;;;;;;;4.80;1.60;;;;;;;1.38;86.99;99415.66;106055;1290;73723;-59
2023/11/25 09:46:17;;;;;;;1.70;0.90;;;;;;;1.32;86.72;99411.74;106082;1290;67451;-58
2023/11/25 09:49:03;;;;;;;1.30;1.10;;;;;;;1.32;87.11;99417.35;106074;1290;71362;-58
2023/11/25 09:51:52;;;;;;;2.20;1.20;;;;;;;1.38;87.35;99418.54;106117;1289;58740;-58
2023/11/25 09:54:39;;;;;;;1.90;1.00;;;;;;;1.47;86.99;99411.95;106121;1289;58859;-58
2023/11/25 09:57:32;;;;;;;1.10;0.90;;;;;;;1.44;86.47;99408.88;106098;1291;73787;-58
2023/11/25 10:00:21;;;;;;;9.30;8.40;;;;;;;1.47;86.79;99412.63;106109;1290;67532;-58
2023/11/25 10:03:10;;;;;;;2.00;1.10;;;;;;;1.41;86.51;99409.56;106104;1290;72366;-58
2023/11/25 10:05:56;;;;;;;1.50;1.00;;;;;;;1.44;86.57;99408.89;106102;1291;58835;-58
2023/11/25 10:08:42;;;;;;;1.60;0.90;;;;;;;1.51;86.87;99408.89;106126;1290;59055;-58
2023/11/25 10:11:30;;;;;;;3.70;2.10;;;;;;;1.49;86.41;99407.88;106088;1290;73183;-58
2023/11/25 10:14:17;;;;;;;3.10;1.50;;;;;;;1.53;86.55;99404.14;106162;1291;67515;-57
2023/11/25 10:17:17;;;;;;;4.00;1.60;;;;;;;1.51;85.95;99403.80;106136;1290;71140;-58
2023/11/25 10:20:18;;;;;;;2.50;0.90;;;;;;;1.54;86.41;99406.85;106122;1289;58095;-58
2023/11/25 10:23:04;;;;;;;1.40;1.00;;;;;;;1.57;86.58;99405.15;106167;1289;58839;-57
2023/11/25 10:25:51;;;;;;;2.30;1.00;;;;;;;1.63;86.17;99406.33;106145;1291;71625;-58
2023/11/25 10:28:37;;;;;;;1.40;1.00;;;;;;;1.60;85.97;99405.48;106140;1289;69932;-57
2023/11/25 10:31:24;;;;;;;2.00;1.00;;;;;;;1.53;86.20;99408.89;106097;1290;72525;-57
2023/11/25 10:34:10;;;;;;;1.50;1.10;;;;;;;1.54;86.46;99406.34;106114;1288;58398;-57
2023/11/25 10:36:56;;;;;;;;;;;;;;;1.66;86.75;99407.85;106139;1290;59892;-58
2023/11/25 10:39:43;;;;;;;2.70;1.10;;;;;;;1.69;86.17;99405.14;106115;1290;73781;-58
2023/11/25 10:42:29;;;;;;;3.50;1.30;;;;;;;1.76;86.38;99402.94;106130;1289;68315;-58
2023/11/25 10:45:16;;;;;;;1.30;1.00;;;;;;;1.86;86.25;99407.70;106125;1289;71116;-56
2023/11/25 10:48:04;;;;;;;4.00;1.10;;;;;;;1.90;85.74;99401.23;106120;1289;58858;-57
2023/11/25 10:50:50;;;;;;;2.60;1.00;;;;;;;1.94;85.61;99407.35;106131;1289;59059;-58
2023/11/25 10:53:44;;;;;;;3.20;1.40;;;;;;;1.88;85.48;99414.48;106161;1291;74211;-57
2023/11/25 10:56:34;;;;;;;3.00;1.40;;;;;;;1.90;85.54;99413.30;104966;1288;68532;-56
2023/11/25 10:59:25;;;;;;;1.20;0.80;;;;;;;1.80;84.93;99411.94;104760;1294;71360;-55
2023/11/25 11:02:23;;;;;;;1.00;0.80;;;;;;;1.75;85.54;99410.06;106113;1289;58825;-57
2023/11/25 11:05:09;;;;;;;3.90;1.40;;;;;;;1.64;85.14;99405.81;106139;1291;59977;-57
2023/11/25 11:08:01;;;;;;;3.20;1.10;;;;;;;1.64;85.78;99407.85;106126;1291;73702;-58
2023/11/25 11:10:53;;;;;;;2.10;0.80;;;;;;;1.65;85.80;99411.25;106047;1290;67521;-58
2023/11/25 11:13:43;;;;;;;2.40;1.20;;;;;;;1.70;85.93;99406.50;106123;1291;70146;-58
2023/11/25 11:16:42;;;;;;;5.00;1.00;;;;;;;1.67;85.79;99411.08;106151;1291;59279;-57
2023/11/25 11:19:41;;;;;;;3.00;1.00;;;;;;;1.66;85.98;99408.36;106155;1289;58914;-58
2023/11/25 11:22:28;;;;;;;2.80;0.90;;;;;;;1.64;86.25;99411.77;106168;1289;72562;-58
2023/11/25 11:25:26;;;;;;;4.60;1.30;;;;;;;1.63;86.28;99413.11;106166;1291;68465;-58
2023/11/25 11:28:25;;;;;;;2.70;1.20;;;;;;;1.65;86.50;99411.42;106157;1289;71629;-58
2023/11/25 11:31:48;;;;;;;2.20;1.20;;;;;;;1.69;86.42;99409.89;106107;1291;58723;-57
2023/11/25 11:34:36;;;;;;;1.40;0.90;;;;;;;1.63;86.51;99414.48;106148;1289;59011;-57
2023/11/25 11:37:22;;;;;;;2.10;1.20;;;;;;;1.61;86.79;99414.64;106169;1289;72779;-58
2023/11/25 11:40:09;;;;;;;3.60;1.10;;;;;;;1.56;86.71;99411.95;106125;1289;67325;-57
2023/11/25 11:42:57;;;;;;;2.70;1.40;;;;;;;1.55;87.13;99411.42;106108;1291;71226;-57
2023/11/25 11:45:43;;;;;;;5.60;1.50;;;;;;;1.54;87.00;99415.19;106134;1290;58689;-58
2023/11/25 11:48:30;;;;;;;3.10;1.10;;;;;;;1.59;87.06;99412.94;106124;1290;60136;-58
2023/11/25 11:51:18;;;;;;;;;;;;;;;1.65;87.35;99412.77;106169;1290;73384;-58
2023/11/25 11:54:19;;;;;;;2.80;1.20;;;;;;;1.69;87.45;99411.77;106158;1292;67915;-57
2023/11/25 11:57:15;;;;;;;2.00;0.80;;;;;;;1.71;87.03;99415.15;106072;1289;71441;-58
2023/11/25 12:00:11;;;;;;;;;;;;;;;1.62;87.08;99414.98;105668;1291;58122;-57
2023/11/25 12:02:59;;;;;;;5.90;1.60;;;;;;;1.56;87.25;99406.67;104850;1291;62903;-57
2023/11/25 12:05:46;;;;;;;2.70;1.30;;;;;;;1.50;87.47;99407.02;104757;1291;76345;-57
2023/11/25 12:08:34;;;;;;;1.60;1.10;;;;;;;1.53;87.41;99404.99;104787;1290;68160;-58
2023/11/25 12:11:20;;;;;;;5.10;2.40;;;;;;;1.55;87.92;99401.76;104729;1294;72408;-59
2023/11/25 12:14:07;;;;;;;5.90;4.10;;;;;;;1.58;87.54;99405.47;104659;1290;60476;-60
2023/11/25 12:16:53;;;;;;;;;;;;;;;1.60;87.38;99401.56;104786;1290;60594;-58
2023/11/25 12:19:41;;;;;;;8.30;6.60;;;;;;;1.55;87.66;99401.77;104822;1291;75155;-60
2023/11/25 12:22:28;;;;;;;17.00;15.20;;;;;;;1.59;87.46;99403.09;104583;1290;68171;-59
2023/11/25 12:25:19;;;;;;;6.10;2.40;;;;;;;1.57;87.57;99402.25;104691;1294;74003;-57
2023/11/25 12:28:07;;;;;;;6.40;5.20;;;;;;;1.52;87.63;99399.38;104738;1292;60505;-58
2023/11/25 12:30:53;;;;;;;5.50;4.10;;;;;;;1.49;87.82;99399.21;104751;1294;60576;-55
2023/11/25 12:33:40;;;;;;;;;;;;;;;1.52;87.75;99398.36;104757;1291;73533;-57
2023/11/25 12:36:26;;;;;;;4.20;2.00;;;;;;;1.56;87.54;99403.63;104705;1291;69475;-57
2023/11/25 12:39:12;;;;;;;;;;;;;;;1.58;87.34;99403.42;104699;1290;71095;-57
2023/11/25 12:42:01;;;;;;;11.70;6.30;;;;;;;1.57;87.58;99406.84;104625;1294;61556;-56
2023/11/25 12:44:48;;;;;;;9.40;3.20;;;;;;;1.57;87.52;99403.10;106071;1294;59202;-56
2023/11/25 12:47:50;;;;;;;3.90;2.90;;;;;;;1.56;87.64;99404.97;106125;1294;72564;-55
2023/11/25 12:51:10;;;;;;;3.60;2.00;;;;;;;1.50;87.58;99410.08;106083;1291;67221;-56
2023/11/25 12:53:56;;;;;;;13.20;7.00;;;;;;;1.50;87.67;99407.52;105994;1291;71371;-56
2023/11/25 12:56:50;;;;;;;7.00;3.00;;;;;;;1.49;87.66;99406.17;106016;1291;58644;-55
2023/11/25 12:59:36;;;;;;;11.70;9.80;;;;;;;1.52;87.75;99407.88;106085;1290;59840;-55
2023/11/25 13:02:22;;;;;;;233.50;136.30;;;;;;;1.53;87.81;99411.45;105955;1291;72672;-54
2023/11/25 13:05:08;;;;;;;39.10;27.90;;;;;;;1.53;87.61;99411.27;106097;1291;67334;-56
2023/11/25 13:07:56;;;;;;;21.80;16.30;;;;;;;1.57;87.91;99411.25;106092;1290;71247;-55
2023/11/25 13:10:43;;;;;;;26.10;22.70;;;;;;;1.57;87.56;99412.60;106078;1290;58601;-56
2023/11/25 13:13:32;;;;;;;10.10;8.20;;;;;;;1.59;87.43;99410.73;106117;1291;58891;-56